sensor_id;sensor_type;location;lat;lon;timestamp;P1;durP1;ratioP1;P2;durP2;ratioP2
64907;SDS011;69061;52.236;5.188;2023-04-21T00:00:48;18.70;;;12.95;;
64907;SDS011;69061;52.236;5.188;2023-04-21T00:03:15;23.92;;;15.60;;
64907;SDS011;69061;52.236;5.188;2023-04-21T00:05:43;23.27;;;15.35;;
64907;SDS011;69061;52.236;5.188;2023-04-21T00:08:10;24.08;;;15.75;;
64907;SDS011;69061;52.236;5.188;2023-04-21T00:10:37;30.60;;;15.27;;
64907;SDS011;69061;52.236;5.188;2023-04-21T00:13:05;21.55;;;15.30;;
64907;SDS011;69061;52.236;5.188;2023-04-21T00:15:31;22.58;;;14.90;;
64907;SDS011;69061;52.236;5.188;2023-04-21T00:17:58;25.73;;;15.85;;
64907;SDS011;69061;52.236;5.188;2023-04-21T00:20:24;28.58;;;18.17;;
64907;SDS011;69061;52.236;5.188;2023-04-21T00:22:51;22.70;;;14.98;;
64907;SDS011;69061;52.236;5.188;2023-04-21T00:25:18;28.73;;;16.73;;
64907;SDS011;69061;52.236;5.188;2023-04-21T00:27:44;26.98;;;16.00;;
64907;SDS011;69061;52.236;5.188;2023-04-21T00:30:12;22.58;;;16.27;;
64907;SDS011;69061;52.236;5.188;2023-04-21T00:32:39;28.02;;;16.30;;
64907;SDS011;69061;52.236;5.188;2023-04-21T00:35:06;24.58;;;15.07;;
64907;SDS011;69061;52.236;5.188;2023-04-21T00:37:33;24.25;;;16.17;;
64907;SDS011;69061;52.236;5.188;2023-04-21T00:40:00;26.10;;;16.80;;
64907;SDS011;69061;52.236;5.188;2023-04-21T00:42:26;27.42;;;17.15;;
64907;SDS011;69061;52.236;5.188;2023-04-21T00:44:53;26.17;;;16.45;;
64907;SDS011;69061;52.236;5.188;2023-04-21T00:47:21;25.63;;;16.27;;
64907;SDS011;69061;52.236;5.188;2023-04-21T00:49:47;26.65;;;17.02;;
64907;SDS011;69061;52.236;5.188;2023-04-21T00:52:16;30.20;;;19.02;;
64907;SDS011;69061;52.236;5.188;2023-04-21T00:54:43;30.40;;;19.65;;
64907;SDS011;69061;52.236;5.188;2023-04-21T00:57:09;27.60;;;18.17;;
64907;SDS011;69061;52.236;5.188;2023-04-21T00:59:39;30.20;;;19.48;;
64907;SDS011;69061;52.236;5.188;2023-04-21T01:02:06;31.85;;;19.40;;
64907;SDS011;69061;52.236;5.188;2023-04-21T01:04:33;30.13;;;18.17;;
64907;SDS011;69061;52.236;5.188;2023-04-21T01:07:03;29.27;;;17.83;;
64907;SDS011;69061;52.236;5.188;2023-04-21T01:09:32;30.63;;;17.75;;
64907;SDS011;69061;52.236;5.188;2023-04-21T01:11:59;29.50;;;19.08;;
64907;SDS011;69061;52.236;5.188;2023-04-21T01:14:27;32.92;;;20.77;;
64907;SDS011;69061;52.236;5.188;2023-04-21T01:16:54;31.20;;;20.02;;
64907;SDS011;69061;52.236;5.188;2023-04-21T01:19:21;24.58;;;15.75;;
64907;SDS011;69061;52.236;5.188;2023-04-21T01:21:50;28.27;;;17.50;;
64907;SDS011;69061;52.236;5.188;2023-04-21T01:24:17;26.30;;;16.13;;
64907;SDS011;69061;52.236;5.188;2023-04-21T01:26:44;32.17;;;19.17;;
64907;SDS011;69061;52.236;5.188;2023-04-21T01:29:13;28.75;;;18.00;;
64907;SDS011;69061;52.236;5.188;2023-04-21T01:31:40;30.67;;;19.00;;
64907;SDS011;69061;52.236;5.188;2023-04-21T01:34:06;32.25;;;20.33;;
64907;SDS011;69061;52.236;5.188;2023-04-21T01:36:34;37.80;;;21.75;;
64907;SDS011;69061;52.236;5.188;2023-04-21T01:39:03;30.40;;;20.35;;
64907;SDS011;69061;52.236;5.188;2023-04-21T01:41:29;33.88;;;21.15;;
64907;SDS011;69061;52.236;5.188;2023-04-21T01:43:56;34.10;;;21.45;;
64907;SDS011;69061;52.236;5.188;2023-04-21T01:46:22;26.65;;;18.42;;
64907;SDS011;69061;52.236;5.188;2023-04-21T01:48:49;32.13;;;21.13;;
64907;SDS011;69061;52.236;5.188;2023-04-21T01:51:15;36.65;;;20.50;;
64907;SDS011;69061;52.236;5.188;2023-04-21T01:53:42;30.67;;;19.92;;
64907;SDS011;69061;52.236;5.188;2023-04-21T01:56:13;30.08;;;20.17;;
64907;SDS011;69061;52.236;5.188;2023-04-21T01:58:39;35.10;;;21.38;;
64907;SDS011;69061;52.236;5.188;2023-04-21T02:01:06;33.47;;;21.17;;
64907;SDS011;69061;52.236;5.188;2023-04-21T02:03:33;34.58;;;21.23;;
64907;SDS011;69061;52.236;5.188;2023-04-21T02:05:59;30.42;;;18.27;;
64907;SDS011;69061;52.236;5.188;2023-04-21T02:08:26;29.92;;;17.73;;
64907;SDS011;69061;52.236;5.188;2023-04-21T02:10:52;34.15;;;21.08;;
64907;SDS011;69061;52.236;5.188;2023-04-21T02:13:20;33.00;;;21.70;;
64907;SDS011;69061;52.236;5.188;2023-04-21T02:15:47;37.97;;;22.77;;
64907;SDS011;69061;52.236;5.188;2023-04-21T02:18:13;31.70;;;20.20;;
64907;SDS011;69061;52.236;5.188;2023-04-21T02:20:40;33.50;;;20.10;;
64907;SDS011;69061;52.236;5.188;2023-04-21T02:23:07;35.33;;;21.40;;
64907;SDS011;69061;52.236;5.188;2023-04-21T02:25:33;33.17;;;19.73;;
64907;SDS011;69061;52.236;5.188;2023-04-21T02:28:00;32.38;;;20.73;;
64907;SDS011;69061;52.236;5.188;2023-04-21T02:30:28;34.00;;;22.05;;
64907;SDS011;69061;52.236;5.188;2023-04-21T02:32:54;31.75;;;19.05;;
64907;SDS011;69061;52.236;5.188;2023-04-21T02:35:21;35.25;;;22.70;;
64907;SDS011;69061;52.236;5.188;2023-04-21T02:37:48;29.02;;;18.33;;
64907;SDS011;69061;52.236;5.188;2023-04-21T02:40:14;32.33;;;20.10;;
64907;SDS011;69061;52.236;5.188;2023-04-21T02:42:41;28.35;;;17.42;;
64907;SDS011;69061;52.236;5.188;2023-04-21T02:45:08;29.42;;;18.38;;
64907;SDS011;69061;52.236;5.188;2023-04-21T02:47:37;32.88;;;20.83;;
64907;SDS011;69061;52.236;5.188;2023-04-21T02:50:03;34.00;;;21.73;;
64907;SDS011;69061;52.236;5.188;2023-04-21T02:52:34;32.78;;;20.25;;
64907;SDS011;69061;52.236;5.188;2023-04-21T02:55:01;30.95;;;18.45;;
64907;SDS011;69061;52.236;5.188;2023-04-21T02:57:28;35.90;;;21.77;;
64907;SDS011;69061;52.236;5.188;2023-04-21T02:59:54;31.73;;;19.13;;
64907;SDS011;69061;52.236;5.188;2023-04-21T03:02:21;33.25;;;21.02;;
64907;SDS011;69061;52.236;5.188;2023-04-21T03:04:49;31.92;;;20.05;;
64907;SDS011;69061;52.236;5.188;2023-04-21T03:07:15;31.00;;;19.63;;
64907;SDS011;69061;52.236;5.188;2023-04-21T03:09:42;31.40;;;20.40;;
64907;SDS011;69061;52.236;5.188;2023-04-21T03:12:08;30.15;;;17.73;;
64907;SDS011;69061;52.236;5.188;2023-04-21T03:14:35;30.42;;;19.33;;
64907;SDS011;69061;52.236;5.188;2023-04-21T03:17:01;28.15;;;18.20;;
64907;SDS011;69061;52.236;5.188;2023-04-21T03:19:31;36.38;;;21.83;;
64907;SDS011;69061;52.236;5.188;2023-04-21T03:21:59;31.45;;;20.85;;
64907;SDS011;69061;52.236;5.188;2023-04-21T03:24:26;28.10;;;19.88;;
64907;SDS011;69061;52.236;5.188;2023-04-21T03:26:52;30.52;;;19.88;;
64907;SDS011;69061;52.236;5.188;2023-04-21T03:29:20;29.52;;;19.55;;
64907;SDS011;69061;52.236;5.188;2023-04-21T03:31:47;34.65;;;21.98;;
64907;SDS011;69061;52.236;5.188;2023-04-21T03:34:13;30.05;;;20.50;;
64907;SDS011;69061;52.236;5.188;2023-04-21T03:36:40;27.90;;;17.50;;
64907;SDS011;69061;52.236;5.188;2023-04-21T03:39:08;27.15;;;16.80;;
64907;SDS011;69061;52.236;5.188;2023-04-21T03:41:34;29.17;;;19.23;;
64907;SDS011;69061;52.236;5.188;2023-04-21T03:44:01;30.08;;;19.40;;
64907;SDS011;69061;52.236;5.188;2023-04-21T03:46:28;27.17;;;17.23;;
64907;SDS011;69061;52.236;5.188;2023-04-21T03:48:54;31.33;;;19.60;;
64907;SDS011;69061;52.236;5.188;2023-04-21T03:51:21;29.55;;;19.33;;
64907;SDS011;69061;52.236;5.188;2023-04-21T03:53:47;27.13;;;18.35;;
64907;SDS011;69061;52.236;5.188;2023-04-21T03:56:15;29.42;;;18.83;;
64907;SDS011;69061;52.236;5.188;2023-04-21T03:58:41;27.67;;;18.20;;
64907;SDS011;69061;52.236;5.188;2023-04-21T04:01:08;24.50;;;17.10;;
64907;SDS011;69061;52.236;5.188;2023-04-21T04:03:34;27.88;;;18.05;;
64907;SDS011;69061;52.236;5.188;2023-04-21T04:06:01;31.17;;;17.95;;
64907;SDS011;69061;52.236;5.188;2023-04-21T04:08:31;27.50;;;17.77;;
64907;SDS011;69061;52.236;5.188;2023-04-21T04:10:57;27.20;;;17.35;;
64907;SDS011;69061;52.236;5.188;2023-04-21T04:13:25;26.48;;;16.23;;
64907;SDS011;69061;52.236;5.188;2023-04-21T04:15:53;24.77;;;16.23;;
64907;SDS011;69061;52.236;5.188;2023-04-21T04:18:20;27.48;;;17.55;;
64907;SDS011;69061;52.236;5.188;2023-04-21T04:20:46;30.77;;;19.83;;
64907;SDS011;69061;52.236;5.188;2023-04-21T04:23:13;28.00;;;19.17;;
64907;SDS011;69061;52.236;5.188;2023-04-21T04:25:39;26.40;;;17.75;;
64907;SDS011;69061;52.236;5.188;2023-04-21T04:28:06;23.45;;;17.30;;
64907;SDS011;69061;52.236;5.188;2023-04-21T04:30:34;25.27;;;15.68;;
64907;SDS011;69061;52.236;5.188;2023-04-21T04:33:01;27.08;;;18.23;;
64907;SDS011;69061;52.236;5.188;2023-04-21T04:35:27;23.73;;;15.60;;
64907;SDS011;69061;52.236;5.188;2023-04-21T04:37:54;27.63;;;16.75;;
64907;SDS011;69061;52.236;5.188;2023-04-21T04:40:21;23.05;;;16.58;;
64907;SDS011;69061;52.236;5.188;2023-04-21T04:42:47;24.83;;;16.85;;
64907;SDS011;69061;52.236;5.188;2023-04-21T04:45:15;24.60;;;16.17;;
64907;SDS011;69061;52.236;5.188;2023-04-21T04:47:46;28.00;;;17.05;;
64907;SDS011;69061;52.236;5.188;2023-04-21T04:50:13;27.30;;;18.63;;
64907;SDS011;69061;52.236;5.188;2023-04-21T04:52:40;25.27;;;16.85;;
64907;SDS011;69061;52.236;5.188;2023-04-21T04:55:08;26.63;;;16.52;;
64907;SDS011;69061;52.236;5.188;2023-04-21T04:57:35;28.15;;;18.15;;
64907;SDS011;69061;52.236;5.188;2023-04-21T05:00:01;28.73;;;18.15;;
64907;SDS011;69061;52.236;5.188;2023-04-21T05:02:30;30.63;;;19.20;;
64907;SDS011;69061;52.236;5.188;2023-04-21T05:04:58;28.30;;;19.35;;
64907;SDS011;69061;52.236;5.188;2023-04-21T05:07:25;27.00;;;18.20;;
64907;SDS011;69061;52.236;5.188;2023-04-21T05:09:51;28.08;;;19.38;;
64907;SDS011;69061;52.236;5.188;2023-04-21T05:12:18;30.48;;;19.85;;
64907;SDS011;69061;52.236;5.188;2023-04-21T05:14:45;28.67;;;19.70;;
64907;SDS011;69061;52.236;5.188;2023-04-21T05:17:11;27.73;;;18.13;;
64907;SDS011;69061;52.236;5.188;2023-04-21T05:19:37;30.90;;;20.42;;
64907;SDS011;69061;52.236;5.188;2023-04-21T05:22:05;29.75;;;19.80;;
64907;SDS011;69061;52.236;5.188;2023-04-21T05:24:32;27.45;;;18.60;;
64907;SDS011;69061;52.236;5.188;2023-04-21T05:26:59;27.17;;;18.98;;
64907;SDS011;69061;52.236;5.188;2023-04-21T05:29:26;28.35;;;20.40;;
64907;SDS011;69061;52.236;5.188;2023-04-21T05:31:53;30.17;;;19.90;;
64907;SDS011;69061;52.236;5.188;2023-04-21T05:34:20;26.70;;;19.42;;
64907;SDS011;69061;52.236;5.188;2023-04-21T05:36:46;27.30;;;19.27;;
64907;SDS011;69061;52.236;5.188;2023-04-21T05:39:14;29.13;;;19.30;;
64907;SDS011;69061;52.236;5.188;2023-04-21T05:41:41;24.90;;;17.47;;
64907;SDS011;69061;52.236;5.188;2023-04-21T05:44:08;27.48;;;19.50;;
64907;SDS011;69061;52.236;5.188;2023-04-21T05:46:35;31.63;;;21.55;;
64907;SDS011;69061;52.236;5.188;2023-04-21T05:49:01;26.42;;;17.92;;
64907;SDS011;69061;52.236;5.188;2023-04-21T05:51:28;29.25;;;20.13;;
64907;SDS011;69061;52.236;5.188;2023-04-21T05:53:56;32.05;;;22.33;;
64907;SDS011;69061;52.236;5.188;2023-04-21T05:56:24;31.50;;;21.90;;
64907;SDS011;69061;52.236;5.188;2023-04-21T05:58:51;32.55;;;20.42;;
64907;SDS011;69061;52.236;5.188;2023-04-21T06:01:17;30.90;;;22.48;;
64907;SDS011;69061;52.236;5.188;2023-04-21T06:03:44;32.75;;;20.45;;
64907;SDS011;69061;52.236;5.188;2023-04-21T06:06:12;32.63;;;21.45;;
64907;SDS011;69061;52.236;5.188;2023-04-21T06:08:39;31.33;;;21.08;;
64907;SDS011;69061;52.236;5.188;2023-04-21T06:11:06;34.13;;;22.92;;
64907;SDS011;69061;52.236;5.188;2023-04-21T06:13:34;32.05;;;22.50;;
64907;SDS011;69061;52.236;5.188;2023-04-21T06:16:00;34.92;;;21.95;;
64907;SDS011;69061;52.236;5.188;2023-04-21T06:18:27;31.73;;;22.55;;
64907;SDS011;69061;52.236;5.188;2023-04-21T06:20:53;34.90;;;23.17;;
64907;SDS011;69061;52.236;5.188;2023-04-21T06:23:21;35.38;;;23.27;;
64907;SDS011;69061;52.236;5.188;2023-04-21T06:25:57;32.35;;;20.73;;
64907;SDS011;69061;52.236;5.188;2023-04-21T06:28:24;36.35;;;21.77;;
64907;SDS011;69061;52.236;5.188;2023-04-21T06:30:52;34.10;;;23.52;;
64907;SDS011;69061;52.236;5.188;2023-04-21T06:33:18;38.10;;;25.92;;
64907;SDS011;69061;52.236;5.188;2023-04-21T06:35:45;35.42;;;24.38;;
64907;SDS011;69061;52.236;5.188;2023-04-21T06:38:11;35.50;;;24.65;;
64907;SDS011;69061;52.236;5.188;2023-04-21T06:40:38;35.33;;;22.85;;
64907;SDS011;69061;52.236;5.188;2023-04-21T06:43:05;37.42;;;26.63;;
64907;SDS011;69061;52.236;5.188;2023-04-21T06:45:31;33.53;;;22.50;;
64907;SDS011;69061;52.236;5.188;2023-04-21T06:47:59;28.80;;;20.92;;
64907;SDS011;69061;52.236;5.188;2023-04-21T06:50:25;34.58;;;22.50;;
64907;SDS011;69061;52.236;5.188;2023-04-21T06:52:52;39.00;;;26.35;;
64907;SDS011;69061;52.236;5.188;2023-04-21T06:55:19;34.80;;;23.73;;
64907;SDS011;69061;52.236;5.188;2023-04-21T06:57:45;42.47;;;26.98;;
64907;SDS011;69061;52.236;5.188;2023-04-21T07:00:12;42.40;;;28.48;;
64907;SDS011;69061;52.236;5.188;2023-04-21T07:02:39;54.20;;;35.00;;
64907;SDS011;69061;52.236;5.188;2023-04-21T07:05:08;45.65;;;31.13;;
64907;SDS011;69061;52.236;5.188;2023-04-21T07:07:35;40.45;;;26.02;;
64907;SDS011;69061;52.236;5.188;2023-04-21T07:10:01;51.15;;;40.92;;
64907;SDS011;69061;52.236;5.188;2023-04-21T07:12:28;38.08;;;28.45;;
64907;SDS011;69061;52.236;5.188;2023-04-21T07:14:55;37.30;;;25.23;;
64907;SDS011;69061;52.236;5.188;2023-04-21T07:17:21;32.33;;;21.55;;
64907;SDS011;69061;52.236;5.188;2023-04-21T07:19:48;37.03;;;24.40;;
64907;SDS011;69061;52.236;5.188;2023-04-21T07:22:16;37.58;;;25.27;;
64907;SDS011;69061;52.236;5.188;2023-04-21T07:24:42;39.03;;;25.17;;
64907;SDS011;69061;52.236;5.188;2023-04-21T07:27:09;30.90;;;21.38;;
64907;SDS011;69061;52.236;5.188;2023-04-21T07:29:35;34.20;;;23.52;;
64907;SDS011;69061;52.236;5.188;2023-04-21T07:32:02;37.35;;;25.45;;
64907;SDS011;69061;52.236;5.188;2023-04-21T07:34:29;34.03;;;23.75;;
64907;SDS011;69061;52.236;5.188;2023-04-21T07:36:55;35.70;;;23.33;;
64907;SDS011;69061;52.236;5.188;2023-04-21T07:39:23;39.60;;;27.13;;
64907;SDS011;69061;52.236;5.188;2023-04-21T07:41:50;38.05;;;26.23;;
64907;SDS011;69061;52.236;5.188;2023-04-21T07:44:17;48.40;;;28.45;;
64907;SDS011;69061;52.236;5.188;2023-04-21T07:46:44;36.40;;;26.63;;
64907;SDS011;69061;52.236;5.188;2023-04-21T07:49:10;36.85;;;24.83;;
64907;SDS011;69061;52.236;5.188;2023-04-21T07:51:37;40.00;;;26.65;;
64907;SDS011;69061;52.236;5.188;2023-04-21T07:54:04;40.50;;;26.63;;
64907;SDS011;69061;52.236;5.188;2023-04-21T07:56:32;45.17;;;29.33;;
64907;SDS011;69061;52.236;5.188;2023-04-21T07:58:58;41.95;;;28.05;;
64907;SDS011;69061;52.236;5.188;2023-04-21T08:01:25;40.45;;;26.27;;
64907;SDS011;69061;52.236;5.188;2023-04-21T08:03:51;39.25;;;27.15;;
64907;SDS011;69061;52.236;5.188;2023-04-21T08:06:18;43.13;;;27.30;;
64907;SDS011;69061;52.236;5.188;2023-04-21T08:08:44;40.22;;;27.15;;
64907;SDS011;69061;52.236;5.188;2023-04-21T08:11:11;44.83;;;27.65;;
64907;SDS011;69061;52.236;5.188;2023-04-21T08:13:39;39.67;;;27.92;;
64907;SDS011;69061;52.236;5.188;2023-04-21T08:16:05;36.83;;;24.25;;
64907;SDS011;69061;52.236;5.188;2023-04-21T08:18:32;39.30;;;26.58;;
64907;SDS011;69061;52.236;5.188;2023-04-21T08:20:59;43.10;;;28.70;;
64907;SDS011;69061;52.236;5.188;2023-04-21T08:23:26;40.92;;;29.15;;
64907;SDS011;69061;52.236;5.188;2023-04-21T08:25:54;42.15;;;29.00;;
64907;SDS011;69061;52.236;5.188;2023-04-21T08:28:21;37.35;;;25.75;;
64907;SDS011;69061;52.236;5.188;2023-04-21T08:30:49;38.45;;;25.42;;
64907;SDS011;69061;52.236;5.188;2023-04-21T08:33:15;37.42;;;25.23;;
64907;SDS011;69061;52.236;5.188;2023-04-21T08:35:42;45.20;;;28.73;;
64907;SDS011;69061;52.236;5.188;2023-04-21T08:38:08;41.15;;;28.35;;
64907;SDS011;69061;52.236;5.188;2023-04-21T08:40:36;45.88;;;29.13;;
64907;SDS011;69061;52.236;5.188;2023-04-21T08:43:03;41.78;;;28.65;;
64907;SDS011;69061;52.236;5.188;2023-04-21T08:45:32;42.85;;;28.38;;
64907;SDS011;69061;52.236;5.188;2023-04-21T08:48:01;40.63;;;26.52;;
64907;SDS011;69061;52.236;5.188;2023-04-21T08:50:31;37.03;;;27.35;;
64907;SDS011;69061;52.236;5.188;2023-04-21T08:52:58;41.85;;;27.95;;
64907;SDS011;69061;52.236;5.188;2023-04-21T08:55:26;45.65;;;30.48;;
64907;SDS011;69061;52.236;5.188;2023-04-21T08:57:54;44.33;;;31.15;;
64907;SDS011;69061;52.236;5.188;2023-04-21T09:00:20;47.22;;;30.38;;
64907;SDS011;69061;52.236;5.188;2023-04-21T09:02:54;41.20;;;28.85;;
64907;SDS011;69061;52.236;5.188;2023-04-21T09:05:24;42.90;;;31.38;;
64907;SDS011;69061;52.236;5.188;2023-04-21T09:07:52;40.28;;;27.60;;
64907;SDS011;69061;52.236;5.188;2023-04-21T09:10:23;47.15;;;30.95;;
64907;SDS011;69061;52.236;5.188;2023-04-21T09:12:50;41.47;;;28.58;;
64907;SDS011;69061;52.236;5.188;2023-04-21T09:15:19;38.55;;;25.98;;
64907;SDS011;69061;52.236;5.188;2023-04-21T09:17:46;35.45;;;25.70;;
64907;SDS011;69061;52.236;5.188;2023-04-21T09:20:20;49.47;;;30.45;;
64907;SDS011;69061;52.236;5.188;2023-04-21T09:22:49;42.65;;;28.80;;
64907;SDS011;69061;52.236;5.188;2023-04-21T09:25:16;36.78;;;26.65;;
64907;SDS011;69061;52.236;5.188;2023-04-21T09:27:45;44.30;;;31.52;;
64907;SDS011;69061;52.236;5.188;2023-04-21T09:30:12;41.92;;;27.92;;
64907;SDS011;69061;52.236;5.188;2023-04-21T09:32:39;38.95;;;27.20;;
64907;SDS011;69061;52.236;5.188;2023-04-21T09:35:07;41.40;;;27.35;;
64907;SDS011;69061;52.236;5.188;2023-04-21T09:37:36;39.38;;;26.80;;
64907;SDS011;69061;52.236;5.188;2023-04-21T09:40:05;34.78;;;26.30;;
64907;SDS011;69061;52.236;5.188;2023-04-21T09:42:32;38.88;;;24.55;;
64907;SDS011;69061;52.236;5.188;2023-04-21T09:44:59;42.20;;;27.77;;
64907;SDS011;69061;52.236;5.188;2023-04-21T09:47:26;41.42;;;28.40;;
64907;SDS011;69061;52.236;5.188;2023-04-21T09:49:54;42.30;;;28.55;;
64907;SDS011;69061;52.236;5.188;2023-04-21T09:52:23;39.10;;;27.92;;
64907;SDS011;69061;52.236;5.188;2023-04-21T09:54:54;43.20;;;29.70;;
64907;SDS011;69061;52.236;5.188;2023-04-21T09:57:26;38.53;;;28.25;;
64907;SDS011;69061;52.236;5.188;2023-04-21T09:59:59;37.67;;;28.02;;
64907;SDS011;69061;52.236;5.188;2023-04-21T10:02:29;40.47;;;27.53;;
64907;SDS011;69061;52.236;5.188;2023-04-21T10:04:56;38.85;;;26.20;;
64907;SDS011;69061;52.236;5.188;2023-04-21T10:07:23;39.05;;;27.00;;
64907;SDS011;69061;52.236;5.188;2023-04-21T10:09:50;41.17;;;27.77;;
64907;SDS011;69061;52.236;5.188;2023-04-21T10:12:18;40.15;;;28.17;;
64907;SDS011;69061;52.236;5.188;2023-04-21T10:14:47;40.58;;;28.40;;
64907;SDS011;69061;52.236;5.188;2023-04-21T10:17:16;40.28;;;27.13;;
64907;SDS011;69061;52.236;5.188;2023-04-21T10:19:49;35.70;;;26.05;;
64907;SDS011;69061;52.236;5.188;2023-04-21T10:22:25;38.42;;;28.13;;
64907;SDS011;69061;52.236;5.188;2023-04-21T10:24:53;38.40;;;27.83;;
64907;SDS011;69061;52.236;5.188;2023-04-21T10:27:29;42.45;;;29.88;;
64907;SDS011;69061;52.236;5.188;2023-04-21T10:29:59;38.33;;;27.40;;
64907;SDS011;69061;52.236;5.188;2023-04-21T10:35:10;42.08;;;29.80;;
64907;SDS011;69061;52.236;5.188;2023-04-21T10:37:39;39.17;;;28.00;;
64907;SDS011;69061;52.236;5.188;2023-04-21T10:40:07;38.80;;;26.88;;
64907;SDS011;69061;52.236;5.188;2023-04-21T10:43:01;39.35;;;26.98;;
64907;SDS011;69061;52.236;5.188;2023-04-21T10:45:29;39.50;;;30.10;;
64907;SDS011;69061;52.236;5.188;2023-04-21T10:47:58;40.75;;;28.23;;
64907;SDS011;69061;52.236;5.188;2023-04-21T10:50:28;41.53;;;29.20;;
64907;SDS011;69061;52.236;5.188;2023-04-21T10:52:57;38.47;;;27.85;;
64907;SDS011;69061;52.236;5.188;2023-04-21T10:55:31;44.08;;;29.75;;
64907;SDS011;69061;52.236;5.188;2023-04-21T10:58:00;37.25;;;27.15;;
64907;SDS011;69061;52.236;5.188;2023-04-21T11:00:27;38.67;;;27.80;;
64907;SDS011;69061;52.236;5.188;2023-04-21T11:02:57;39.53;;;29.30;;
64907;SDS011;69061;52.236;5.188;2023-04-21T11:05:32;68.05;;;53.55;;
64907;SDS011;69061;52.236;5.188;2023-04-21T11:08:04;42.72;;;31.83;;
64907;SDS011;69061;52.236;5.188;2023-04-21T11:10:40;35.00;;;26.10;;
64907;SDS011;69061;52.236;5.188;2023-04-21T11:13:07;39.33;;;26.73;;
64907;SDS011;69061;52.236;5.188;2023-04-21T11:15:36;41.33;;;28.23;;
64907;SDS011;69061;52.236;5.188;2023-04-21T11:18:03;36.40;;;27.73;;
64907;SDS011;69061;52.236;5.188;2023-04-21T11:20:32;35.75;;;26.60;;
64907;SDS011;69061;52.236;5.188;2023-04-21T11:22:58;35.28;;;26.63;;
64907;SDS011;69061;52.236;5.188;2023-04-21T11:25:25;41.03;;;27.92;;
64907;SDS011;69061;52.236;5.188;2023-04-21T11:27:52;44.85;;;27.10;;
64907;SDS011;69061;52.236;5.188;2023-04-21T11:30:19;41.60;;;28.10;;
64907;SDS011;69061;52.236;5.188;2023-04-21T11:32:53;38.95;;;27.00;;
64907;SDS011;69061;52.236;5.188;2023-04-21T11:35:20;37.83;;;26.52;;
64907;SDS011;69061;52.236;5.188;2023-04-21T11:37:48;39.00;;;27.00;;
64907;SDS011;69061;52.236;5.188;2023-04-21T11:40:15;36.40;;;27.75;;
64907;SDS011;69061;52.236;5.188;2023-04-21T11:42:42;37.42;;;27.17;;
64907;SDS011;69061;52.236;5.188;2023-04-21T11:45:15;36.35;;;26.95;;
64907;SDS011;69061;52.236;5.188;2023-04-21T11:47:42;38.40;;;27.67;;
64907;SDS011;69061;52.236;5.188;2023-04-21T11:50:10;36.45;;;26.30;;
64907;SDS011;69061;52.236;5.188;2023-04-21T11:52:37;42.78;;;28.50;;
64907;SDS011;69061;52.236;5.188;2023-04-21T11:55:05;39.75;;;26.83;;
64907;SDS011;69061;52.236;5.188;2023-04-21T11:57:39;35.38;;;25.30;;
64907;SDS011;69061;52.236;5.188;2023-04-21T12:00:07;39.25;;;26.77;;
64907;SDS011;69061;52.236;5.188;2023-04-21T12:02:35;42.47;;;27.92;;
64907;SDS011;69061;52.236;5.188;2023-04-21T12:05:03;38.55;;;26.13;;
64907;SDS011;69061;52.236;5.188;2023-04-21T12:07:33;37.88;;;25.10;;
64907;SDS011;69061;52.236;5.188;2023-04-21T12:10:00;41.42;;;27.42;;
64907;SDS011;69061;52.236;5.188;2023-04-21T12:12:35;42.92;;;29.60;;
64907;SDS011;69061;52.236;5.188;2023-04-21T12:15:02;42.30;;;26.88;;
64907;SDS011;69061;52.236;5.188;2023-04-21T12:17:33;33.75;;;24.50;;
64907;SDS011;69061;52.236;5.188;2023-04-21T12:20:03;33.17;;;24.38;;
64907;SDS011;69061;52.236;5.188;2023-04-21T12:22:31;33.95;;;26.27;;
64907;SDS011;69061;52.236;5.188;2023-04-21T12:24:58;41.53;;;27.05;;
64907;SDS011;69061;52.236;5.188;2023-04-21T12:27:25;32.72;;;24.70;;
64907;SDS011;69061;52.236;5.188;2023-04-21T12:29:51;34.58;;;25.35;;
64907;SDS011;69061;52.236;5.188;2023-04-21T12:32:18;32.17;;;22.85;;
64907;SDS011;69061;52.236;5.188;2023-04-21T12:34:46;37.45;;;26.55;;
64907;SDS011;69061;52.236;5.188;2023-04-21T12:37:13;36.28;;;24.85;;
64907;SDS011;69061;52.236;5.188;2023-04-21T12:39:41;44.22;;;26.42;;
64907;SDS011;69061;52.236;5.188;2023-04-21T12:42:07;35.75;;;25.05;;
64907;SDS011;69061;52.236;5.188;2023-04-21T12:44:34;33.35;;;23.17;;
64907;SDS011;69061;52.236;5.188;2023-04-21T12:47:00;31.73;;;22.77;;
64907;SDS011;69061;52.236;5.188;2023-04-21T12:49:27;36.90;;;25.20;;
64907;SDS011;69061;52.236;5.188;2023-04-21T12:51:54;32.78;;;23.23;;
64907;SDS011;69061;52.236;5.188;2023-04-21T12:54:20;29.25;;;21.45;;
64907;SDS011;69061;52.236;5.188;2023-04-21T12:56:48;32.00;;;21.88;;
64907;SDS011;69061;52.236;5.188;2023-04-21T12:59:15;31.50;;;23.45;;
64907;SDS011;69061;52.236;5.188;2023-04-21T13:01:41;32.35;;;22.88;;
64907;SDS011;69061;52.236;5.188;2023-04-21T13:04:08;30.33;;;22.50;;
64907;SDS011;69061;52.236;5.188;2023-04-21T13:06:35;32.80;;;23.95;;
64907;SDS011;69061;52.236;5.188;2023-04-21T13:09:04;28.88;;;22.00;;
64907;SDS011;69061;52.236;5.188;2023-04-21T13:11:30;33.80;;;23.17;;
64907;SDS011;69061;52.236;5.188;2023-04-21T13:13:58;30.33;;;21.50;;
64907;SDS011;69061;52.236;5.188;2023-04-21T13:16:25;35.10;;;22.85;;
64907;SDS011;69061;52.236;5.188;2023-04-21T13:18:51;32.45;;;21.83;;
64907;SDS011;69061;52.236;5.188;2023-04-21T13:21:18;34.28;;;22.58;;
64907;SDS011;69061;52.236;5.188;2023-04-21T13:23:45;32.42;;;23.25;;
64907;SDS011;69061;52.236;5.188;2023-04-21T13:26:11;32.45;;;23.00;;
64907;SDS011;69061;52.236;5.188;2023-04-21T13:28:38;35.85;;;23.85;;
64907;SDS011;69061;52.236;5.188;2023-04-21T13:31:06;37.65;;;25.73;;
64907;SDS011;69061;52.236;5.188;2023-04-21T13:33:33;35.10;;;23.35;;
64907;SDS011;69061;52.236;5.188;2023-04-21T13:36:00;38.20;;;25.05;;
64907;SDS011;69061;52.236;5.188;2023-04-21T13:38:27;30.27;;;21.75;;
64907;SDS011;69061;52.236;5.188;2023-04-21T13:40:53;35.97;;;24.17;;
64907;SDS011;69061;52.236;5.188;2023-04-21T13:43:20;36.95;;;25.15;;
64907;SDS011;69061;52.236;5.188;2023-04-21T13:45:46;43.42;;;27.00;;
64907;SDS011;69061;52.236;5.188;2023-04-21T13:48:17;35.42;;;26.15;;
64907;SDS011;69061;52.236;5.188;2023-04-21T13:50:44;37.88;;;25.63;;
64907;SDS011;69061;52.236;5.188;2023-04-21T13:53:10;40.90;;;26.42;;
64907;SDS011;69061;52.236;5.188;2023-04-21T13:55:38;36.17;;;26.67;;
64907;SDS011;69061;52.236;5.188;2023-04-21T13:58:04;37.40;;;25.25;;
64907;SDS011;69061;52.236;5.188;2023-04-21T14:00:31;37.78;;;26.98;;
64907;SDS011;69061;52.236;5.188;2023-04-21T14:02:57;33.70;;;24.10;;
64907;SDS011;69061;52.236;5.188;2023-04-21T14:05:25;37.20;;;26.55;;
64907;SDS011;69061;52.236;5.188;2023-04-21T14:07:52;37.17;;;25.85;;
64907;SDS011;69061;52.236;5.188;2023-04-21T14:10:18;38.03;;;27.15;;
64907;SDS011;69061;52.236;5.188;2023-04-21T14:12:45;35.08;;;25.73;;
64907;SDS011;69061;52.236;5.188;2023-04-21T14:15:13;36.75;;;24.45;;
64907;SDS011;69061;52.236;5.188;2023-04-21T14:17:39;36.05;;;22.92;;
64907;SDS011;69061;52.236;5.188;2023-04-21T14:20:06;35.28;;;24.95;;
64907;SDS011;69061;52.236;5.188;2023-04-21T14:22:35;34.28;;;24.45;;
64907;SDS011;69061;52.236;5.188;2023-04-21T14:25:02;36.53;;;25.13;;